sensor_id;sensor_type;location;lat;lon;timestamp;P1;P2;P0
26185;PMS7003;20067;48.764;9.176;2024-01-30T00:01:53;17.00;16.25;7.50
26185;PMS7003;20067;48.764;9.176;2024-01-30T00:04:19;13.50;13.00;6.00
26185;PMS7003;20067;48.764;9.176;2024-01-30T00:06:44;17.00;17.00;10.00
26185;PMS7003;20067;48.764;9.176;2024-01-30T00:09:10;17.75;13.00;6.50
26185;PMS7003;20067;48.764;9.176;2024-01-30T00:11:36;19.50;17.00;9.00
26185;PMS7003;20067;48.764;9.176;2024-01-30T00:14:03;19.75;15.00;7.00
26185;PMS7003;20067;48.764;9.176;2024-01-30T00:16:29;18.50;13.00;6.00
26185;PMS7003;20067;48.764;9.176;2024-01-30T00:18:55;15.00;14.00;7.00
26185;PMS7003;20067;48.764;9.176;2024-01-30T00:21:21;17.00;16.50;8.00
26185;PMS7003;20067;48.764;9.176;2024-01-30T00:23:47;18.00;16.25;8.00
26185;PMS7003;20067;48.764;9.176;2024-01-30T00:26:13;16.50;15.00;8.00
26185;PMS7003;20067;48.764;9.176;2024-01-30T00:28:40;17.00;17.00;10.00
26185;PMS7003;20067;48.764;9.176;2024-01-30T00:31:06;16.25;16.00;7.50
26185;PMS7003;20067;48.764;9.176;2024-01-30T00:33:32;16.50;16.00;7.50
26185;PMS7003;20067;48.764;9.176;2024-01-30T00:35:57;20.75;17.50;9.00
26185;PMS7003;20067;48.764;9.176;2024-01-30T00:38:23;15.00;14.25;6.25
26185;PMS7003;20067;48.764;9.176;2024-01-30T00:40:49;19.25;15.50;8.00
26185;PMS7003;20067;48.764;9.176;2024-01-30T00:43:15;19.50;16.75;8.00
26185;PMS7003;20067;48.764;9.176;2024-01-30T00:45:43;16.75;16.75;6.25
26185;PMS7003;20067;48.764;9.176;2024-01-30T00:48:08;16.50;15.50;8.50
26185;PMS7003;20067;48.764;9.176;2024-01-30T00:50:34;15.50;13.50;6.00
26185;PMS7003;20067;48.764;9.176;2024-01-30T00:52:59;15.75;15.75;7.75
26185;PMS7003;20067;48.764;9.176;2024-01-30T00:55:25;18.75;15.25;7.00
26185;PMS7003;20067;48.764;9.176;2024-01-30T00:57:51;15.00;13.50;7.00
26185;PMS7003;20067;48.764;9.176;2024-01-30T01:00:16;15.00;14.00;8.00
26185;PMS7003;20067;48.764;9.176;2024-01-30T01:02:42;19.00;14.25;8.00
26185;PMS7003;20067;48.764;9.176;2024-01-30T01:05:08;16.00;14.75;6.25
26185;PMS7003;20067;48.764;9.176;2024-01-30T01:07:34;19.50;17.00;10.50
26185;PMS7003;20067;48.764;9.176;2024-01-30T01:10:00;13.00;12.00;6.00
26185;PMS7003;20067;48.764;9.176;2024-01-30T01:12:25;20.00;19.25;8.00
26185;PMS7003;20067;48.764;9.176;2024-01-30T01:14:51;19.00;17.00;8.00
26185;PMS7003;20067;48.764;9.176;2024-01-30T01:17:17;15.00;13.75;7.50
26185;PMS7003;20067;48.764;9.176;2024-01-30T01:19:43;17.00;15.75;7.50
26185;PMS7003;20067;48.764;9.176;2024-01-30T01:22:09;17.75;13.75;6.75
26185;PMS7003;20067;48.764;9.176;2024-01-30T01:24:35;14.50;13.25;6.00
26185;PMS7003;20067;48.764;9.176;2024-01-30T01:27:01;19.25;16.00;7.75
26185;PMS7003;20067;48.764;9.176;2024-01-30T01:29:27;15.50;14.00;7.75
26185;PMS7003;20067;48.764;9.176;2024-01-30T01:31:56;20.75;15.50;8.50
26185;PMS7003;20067;48.764;9.176;2024-01-30T01:34:22;14.75;14.75;7.25
26185;PMS7003;20067;48.764;9.176;2024-01-30T01:36:50;13.75;13.00;6.25
26185;PMS7003;20067;48.764;9.176;2024-01-30T01:39:16;17.25;15.75;7.75
26185;PMS7003;20067;48.764;9.176;2024-01-30T01:41:43;17.00;15.00;8.00
26185;PMS7003;20067;48.764;9.176;2024-01-30T01:44:08;18.25;16.25;7.25
26185;PMS7003;20067;48.764;9.176;2024-01-30T01:46:34;18.25;14.75;6.50
26185;PMS7003;20067;48.764;9.176;2024-01-30T01:49:02;15.00;13.00;6.75
26185;PMS7003;20067;48.764;9.176;2024-01-30T01:51:29;17.00;15.00;8.00
26185;PMS7003;20067;48.764;9.176;2024-01-30T01:53:56;13.00;12.75;5.00
26185;PMS7003;20067;48.764;9.176;2024-01-30T01:56:23;17.50;14.25;8.00
26185;PMS7003;20067;48.764;9.176;2024-01-30T01:58:50;17.50;14.00;7.75
26185;PMS7003;20067;48.764;9.176;2024-01-30T02:01:19;17.00;15.00;7.25
26185;PMS7003;20067;48.764;9.176;2024-01-30T02:03:46;15.00;14.25;7.00
26185;PMS7003;20067;48.764;9.176;2024-01-30T02:06:13;19.00;17.00;10.00
26185;PMS7003;20067;48.764;9.176;2024-01-30T02:08:39;14.25;14.00;7.00
26185;PMS7003;20067;48.764;9.176;2024-01-30T02:11:06;16.00;13.75;6.00
26185;PMS7003;20067;48.764;9.176;2024-01-30T02:13:32;16.50;15.00;8.00
26185;PMS7003;20067;48.764;9.176;2024-01-30T02:15:57;22.75;19.50;9.00
26185;PMS7003;20067;48.764;9.176;2024-01-30T02:18:23;17.50;14.50;7.50
26185;PMS7003;20067;48.764;9.176;2024-01-30T02:20:48;16.25;14.00;7.00
26185;PMS7003;20067;48.764;9.176;2024-01-30T02:23:19;16.00;16.00;7.00
26185;PMS7003;20067;48.764;9.176;2024-01-30T02:25:45;17.00;14.00;5.00
26185;PMS7003;20067;48.764;9.176;2024-01-30T02:28:10;16.00;14.00;6.50
26185;PMS7003;20067;48.764;9.176;2024-01-30T02:30:39;16.50;14.50;7.00
26185;PMS7003;20067;48.764;9.176;2024-01-30T02:33:07;16.50;16.00;8.00
26185;PMS7003;20067;48.764;9.176;2024-01-30T02:35:33;18.50;15.00;7.00
26185;PMS7003;20067;48.764;9.176;2024-01-30T02:37:59;21.25;15.00;7.75
26185;PMS7003;20067;48.764;9.176;2024-01-30T02:40:25;21.25;17.50;7.00
26185;PMS7003;20067;48.764;9.176;2024-01-30T02:42:50;15.75;12.75;7.00
26185;PMS7003;20067;48.764;9.176;2024-01-30T02:45:16;16.25;15.00;7.00
26185;PMS7003;20067;48.764;9.176;2024-01-30T02:47:42;17.25;14.00;7.00
26185;PMS7003;20067;48.764;9.176;2024-01-30T02:50:08;17.00;14.00;7.00
26185;PMS7003;20067;48.764;9.176;2024-01-30T02:52:34;14.00;14.00;7.00
26185;PMS7003;20067;48.764;9.176;2024-01-30T02:55:00;14.75;14.75;7.75
26185;PMS7003;20067;48.764;9.176;2024-01-30T02:57:26;18.00;16.25;7.25
26185;PMS7003;20067;48.764;9.176;2024-01-30T02:59:51;16.75;14.50;7.00
26185;PMS7003;20067;48.764;9.176;2024-01-30T03:02:17;13.50;13.50;7.00
26185;PMS7003;20067;48.764;9.176;2024-01-30T03:04:43;15.25;13.25;6.25
26185;PMS7003;20067;48.764;9.176;2024-01-30T03:07:08;18.50;17.00;7.50
26185;PMS7003;20067;48.764;9.176;2024-01-30T03:09:34;15.50;14.50;8.00
26185;PMS7003;20067;48.764;9.176;2024-01-30T03:12:01;15.25;12.25;7.00
26185;PMS7003;20067;48.764;9.176;2024-01-30T03:14:27;21.00;18.25;8.50
26185;PMS7003;20067;48.764;9.176;2024-01-30T03:16:52;12.75;10.50;5.00
26185;PMS7003;20067;48.764;9.176;2024-01-30T03:19:18;17.00;15.00;8.00
26185;PMS7003;20067;48.764;9.176;2024-01-30T03:21:43;15.50;12.75;7.25
26185;PMS7003;20067;48.764;9.176;2024-01-30T03:24:09;18.25;13.50;6.00
26185;PMS7003;20067;48.764;9.176;2024-01-30T03:26:35;14.50;14.50;5.75
26185;PMS7003;20067;48.764;9.176;2024-01-30T03:29:01;15.00;13.00;6.00
26185;PMS7003;20067;48.764;9.176;2024-01-30T03:31:26;12.75;11.25;5.50
26185;PMS7003;20067;48.764;9.176;2024-01-30T03:33:52;19.50;15.50;7.25
26185;PMS7003;20067;48.764;9.176;2024-01-30T03:36:18;15.00;14.00;7.00
26185;PMS7003;20067;48.764;9.176;2024-01-30T03:38:44;16.00;14.00;6.75
26185;PMS7003;20067;48.764;9.176;2024-01-30T03:41:09;11.50;11.00;6.75
26185;PMS7003;20067;48.764;9.176;2024-01-30T03:43:35;15.00;15.00;8.00
26185;PMS7003;20067;48.764;9.176;2024-01-30T03:46:01;12.75;11.50;6.75
26185;PMS7003;20067;48.764;9.176;2024-01-30T03:48:28;14.00;12.00;7.00
26185;PMS7003;20067;48.764;9.176;2024-01-30T03:50:54;15.75;15.75;7.00
26185;PMS7003;20067;48.764;9.176;2024-01-30T03:53:20;14.50;13.25;5.25
26185;PMS7003;20067;48.764;9.176;2024-01-30T03:55:45;14.00;13.25;7.25
26185;PMS7003;20067;48.764;9.176;2024-01-30T03:58:11;16.00;16.00;7.25
26185;PMS7003;20067;48.764;9.176;2024-01-30T04:00:37;14.00;14.00;7.50
26185;PMS7003;20067;48.764;9.176;2024-01-30T04:03:03;16.25;14.00;7.00
26185;PMS7003;20067;48.764;9.176;2024-01-30T04:05:28;19.00;14.00;7.00
26185;PMS7003;20067;48.764;9.176;2024-01-30T04:07:54;12.00;12.00;5.50
26185;PMS7003;20067;48.764;9.176;2024-01-30T04:10:20;20.50;18.50;10.00
26185;PMS7003;20067;48.764;9.176;2024-01-30T04:12:45;15.75;12.00;5.25
26185;PMS7003;20067;48.764;9.176;2024-01-30T04:15:11;16.75;14.50;7.50
26185;PMS7003;20067;48.764;9.176;2024-01-30T04:17:38;19.00;12.75;6.75
26185;PMS7003;20067;48.764;9.176;2024-01-30T04:20:04;16.25;15.00;8.00
26185;PMS7003;20067;48.764;9.176;2024-01-30T04:22:30;14.00;14.00;7.75
26185;PMS7003;20067;48.764;9.176;2024-01-30T04:24:56;13.00;13.00;7.00
26185;PMS7003;20067;48.764;9.176;2024-01-30T04:27:22;17.00;16.00;7.00
26185;PMS7003;20067;48.764;9.176;2024-01-30T04:29:47;17.50;14.75;7.75
26185;PMS7003;20067;48.764;9.176;2024-01-30T04:32:13;18.75;18.75;10.00
26185;PMS7003;20067;48.764;9.176;2024-01-30T04:34:39;17.00;14.25;7.50
26185;PMS7003;20067;48.764;9.176;2024-01-30T04:37:04;19.00;16.00;7.75
26185;PMS7003;20067;48.764;9.176;2024-01-30T04:39:30;17.75;16.75;9.00
26185;PMS7003;20067;48.764;9.176;2024-01-30T04:41:58;14.25;14.25;7.75
26185;PMS7003;20067;48.764;9.176;2024-01-30T04:44:24;16.50;14.75;7.75
26185;PMS7003;20067;48.764;9.176;2024-01-30T04:46:50;16.00;16.00;8.75
26185;PMS7003;20067;48.764;9.176;2024-01-30T04:49:15;19.00;15.50;8.00
26185;PMS7003;20067;48.764;9.176;2024-01-30T04:51:41;27.00;21.00;9.50
26185;PMS7003;20067;48.764;9.176;2024-01-30T04:54:06;21.00;19.00;9.50
26185;PMS7003;20067;48.764;9.176;2024-01-30T04:56:32;16.50;16.50;8.00
26185;PMS7003;20067;48.764;9.176;2024-01-30T04:58:58;24.00;19.50;10.00
26185;PMS7003;20067;48.764;9.176;2024-01-30T05:01:24;19.00;14.50;7.00
26185;PMS7003;20067;48.764;9.176;2024-01-30T05:03:49;18.00;16.00;8.00
26185;PMS7003;20067;48.764;9.176;2024-01-30T05:06:23;15.00;14.25;6.75
26185;PMS7003;20067;48.764;9.176;2024-01-30T05:08:52;17.00;17.00;8.00
26185;PMS7003;20067;48.764;9.176;2024-01-30T05:11:18;18.50;17.00;8.00
26185;PMS7003;20067;48.764;9.176;2024-01-30T05:13:43;16.50;15.00;8.00
26185;PMS7003;20067;48.764;9.176;2024-01-30T05:16:09;17.50;14.75;7.25
26185;PMS7003;20067;48.764;9.176;2024-01-30T05:18:35;20.75;20.50;10.00
26185;PMS7003;20067;48.764;9.176;2024-01-30T05:21:01;17.00;17.00;9.50
26185;PMS7003;20067;48.764;9.176;2024-01-30T05:23:27;21.25;18.75;7.75
26185;PMS7003;20067;48.764;9.176;2024-01-30T05:25:53;19.00;14.00;7.00
26185;PMS7003;20067;48.764;9.176;2024-01-30T05:28:18;14.00;14.00;7.00
26185;PMS7003;20067;48.764;9.176;2024-01-30T05:30:44;13.25;12.50;7.00
26185;PMS7003;20067;48.764;9.176;2024-01-30T05:33:10;13.25;13.25;7.25
26185;PMS7003;20067;48.764;9.176;2024-01-30T05:35:37;16.25;16.25;8.00
26185;PMS7003;20067;48.764;9.176;2024-01-30T05:38:03;16.25;14.00;8.00
26185;PMS7003;20067;48.764;9.176;2024-01-30T05:40:29;18.00;18.00;9.75
26185;PMS7003;20067;48.764;9.176;2024-01-30T05:42:55;20.00;17.50;9.25
26185;PMS7003;20067;48.764;9.176;2024-01-30T05:45:21;20.00;16.25;9.00
26185;PMS7003;20067;48.764;9.176;2024-01-30T05:47:48;21.25;18.25;8.75
26185;PMS7003;20067;48.764;9.176;2024-01-30T05:50:13;19.75;18.75;9.00
26185;PMS7003;20067;48.764;9.176;2024-01-30T05:52:40;17.00;16.00;9.00
26185;PMS7003;20067;48.764;9.176;2024-01-30T05:55:06;23.00;18.50;9.25
26185;PMS7003;20067;48.764;9.176;2024-01-30T05:57:32;20.00;17.00;9.00
26185;PMS7003;20067;48.764;9.176;2024-01-30T05:59:57;16.50;15.50;8.00
26185;PMS7003;20067;48.764;9.176;2024-01-30T06:02:23;16.25;13.50;7.00
26185;PMS7003;20067;48.764;9.176;2024-01-30T06:04:48;22.75;18.25;9.25
26185;PMS7003;20067;48.764;9.176;2024-01-30T06:07:14;21.00;17.50;10.00
26185;PMS7003;20067;48.764;9.176;2024-01-30T06:09:40;15.25;15.25;9.50
26185;PMS7003;20067;48.764;9.176;2024-01-30T06:12:06;21.25;16.75;8.25
26185;PMS7003;20067;48.764;9.176;2024-01-30T06:14:31;25.50;20.00;12.00
26185;PMS7003;20067;48.764;9.176;2024-01-30T06:16:58;21.25;18.50;11.00
26185;PMS7003;20067;48.764;9.176;2024-01-30T06:19:24;22.50;17.75;8.75
26185;PMS7003;20067;48.764;9.176;2024-01-30T06:21:50;19.50;17.75;12.00
26185;PMS7003;20067;48.764;9.176;2024-01-30T06:24:15;20.50;17.25;9.50
26185;PMS7003;20067;48.764;9.176;2024-01-30T06:26:42;20.50;18.25;10.00
26185;PMS7003;20067;48.764;9.176;2024-01-30T06:29:07;20.50;18.50;10.00
26185;PMS7003;20067;48.764;9.176;2024-01-30T06:31:34;20.50;16.00;10.00
26185;PMS7003;20067;48.764;9.176;2024-01-30T06:34:05;21.50;19.50;10.00
26185;PMS7003;20067;48.764;9.176;2024-01-30T06:36:31;18.75;17.75;10.50
26185;PMS7003;20067;48.764;9.176;2024-01-30T06:38:57;21.25;17.00;10.00
26185;PMS7003;20067;48.764;9.176;2024-01-30T06:41:22;24.00;19.00;10.00
26185;PMS7003;20067;48.764;9.176;2024-01-30T06:43:48;21.50;19.00;10.00
26185;PMS7003;20067;48.764;9.176;2024-01-30T06:46:14;22.25;21.00;12.00
26185;PMS7003;20067;48.764;9.176;2024-01-30T06:48:40;17.50;15.25;8.25
26185;PMS7003;20067;48.764;9.176;2024-01-30T06:51:06;19.00;16.00;8.25
26185;PMS7003;20067;48.764;9.176;2024-01-30T06:53:32;23.75;20.50;11.00
26185;PMS7003;20067;48.764;9.176;2024-01-30T06:55:57;23.75;23.75;11.00
26185;PMS7003;20067;48.764;9.176;2024-01-30T06:58:23;22.75;21.00;12.50
26185;PMS7003;20067;48.764;9.176;2024-01-30T07:00:48;24.25;20.50;13.00
26185;PMS7003;20067;48.764;9.176;2024-01-30T07:03:14;26.50;20.50;9.00
26185;PMS7003;20067;48.764;9.176;2024-01-30T07:05:40;18.25;16.50;8.00
26185;PMS7003;20067;48.764;9.176;2024-01-30T07:08:05;23.00;23.00;11.50
26185;PMS7003;20067;48.764;9.176;2024-01-30T07:10:32;17.50;17.00;8.00
26185;PMS7003;20067;48.764;9.176;2024-01-30T07:12:58;18.25;17.00;10.00
26185;PMS7003;20067;48.764;9.176;2024-01-30T07:15:25;24.25;20.75;11.00
26185;PMS7003;20067;48.764;9.176;2024-01-30T07:17:50;19.00;16.75;8.25
26185;PMS7003;20067;48.764;9.176;2024-01-30T07:20:16;24.50;17.00;12.00
26185;PMS7003;20067;48.764;9.176;2024-01-30T07:22:44;25.50;17.00;10.00
26185;PMS7003;20067;48.764;9.176;2024-01-30T07:25:10;19.00;19.00;12.00
26185;PMS7003;20067;48.764;9.176;2024-01-30T07:27:36;21.00;17.00;8.00
26185;PMS7003;20067;48.764;9.176;2024-01-30T07:30:02;26.00;23.00;11.00
26185;PMS7003;20067;48.764;9.176;2024-01-30T07:32:28;21.00;19.50;10.00
26185;PMS7003;20067;48.764;9.176;2024-01-30T07:34:53;21.00;18.25;10.00
26185;PMS7003;20067;48.764;9.176;2024-01-30T07:37:19;20.75;18.00;11.50
26185;PMS7003;20067;48.764;9.176;2024-01-30T07:39:45;22.00;19.00;11.50
26185;PMS7003;20067;48.764;9.176;2024-01-30T07:42:12;21.75;18.50;10.00
26185;PMS7003;20067;48.764;9.176;2024-01-30T07:44:37;21.25;19.00;10.00
26185;PMS7003;20067;48.764;9.176;2024-01-30T07:47:03;24.75;20.75;12.00
26185;PMS7003;20067;48.764;9.176;2024-01-30T07:49:29;20.50;19.00;10.50
26185;PMS7003;20067;48.764;9.176;2024-01-30T07:51:55;22.00;21.00;12.00
26185;PMS7003;20067;48.764;9.176;2024-01-30T07:54:21;21.75;20.75;10.00
26185;PMS7003;20067;48.764;9.176;2024-01-30T07:56:46;22.75;20.75;12.00
26185;PMS7003;20067;48.764;9.176;2024-01-30T07:59:12;20.50;19.00;12.00
26185;PMS7003;20067;48.764;9.176;2024-01-30T08:01:38;23.00;19.00;12.00
26185;PMS7003;20067;48.764;9.176;2024-01-30T08:04:04;19.50;19.50;11.50
26185;PMS7003;20067;48.764;9.176;2024-01-30T08:06:29;21.25;19.00;11.50
26185;PMS7003;20067;48.764;9.176;2024-01-30T08:08:55;20.00;17.50;9.50
26185;PMS7003;20067;48.764;9.176;2024-01-30T08:11:22;23.50;20.25;13.50
26185;PMS7003;20067;48.764;9.176;2024-01-30T08:13:51;18.00;18.00;10.00
26185;PMS7003;20067;48.764;9.176;2024-01-30T08:16:17;22.25;18.50;10.50
26185;PMS7003;20067;48.764;9.176;2024-01-30T08:18:43;18.50;17.50;11.50
26185;PMS7003;20067;48.764;9.176;2024-01-30T08:21:08;20.25;19.75;12.00
26185;PMS7003;20067;48.764;9.176;2024-01-30T08:23:34;23.50;22.00;13.00
26185;PMS7003;20067;48.764;9.176;2024-01-30T08:26:00;24.25;20.25;11.25
26185;PMS7003;20067;48.764;9.176;2024-01-30T08:28:26;27.50;24.50;13.00
26185;PMS7003;20067;48.764;9.176;2024-01-30T08:30:52;27.25;20.75;11.75
26185;PMS7003;20067;48.764;9.176;2024-01-30T08:33:17;28.75;23.00;13.00
26185;PMS7003;20067;48.764;9.176;2024-01-30T08:35:43;23.00;22.00;13.00
26185;PMS7003;20067;48.764;9.176;2024-01-30T08:38:09;25.00;21.75;13.00
26185;PMS7003;20067;48.764;9.176;2024-01-30T08:40:37;34.00;26.50;15.00
26185;PMS7003;20067;48.764;9.176;2024-01-30T08:43:03;30.25;26.75;15.75
26185;PMS7003;20067;48.764;9.176;2024-01-30T08:45:29;23.25;22.00;12.00
26185;PMS7003;20067;48.764;9.176;2024-01-30T08:47:55;23.75;21.75;12.75
26185;PMS7003;20067;48.764;9.176;2024-01-30T08:50:21;22.00;22.00;13.00
26185;PMS7003;20067;48.764;9.176;2024-01-30T08:52:47;26.00;24.50;13.50
26185;PMS7003;20067;48.764;9.176;2024-01-30T08:55:13;22.25;21.25;13.00
26185;PMS7003;20067;48.764;9.176;2024-01-30T08:57:38;21.75;21.75;11.00
26185;PMS7003;20067;48.764;9.176;2024-01-30T09:00:04;24.75;20.75;13.00
26185;PMS7003;20067;48.764;9.176;2024-01-30T09:02:31;23.50;23.50;13.00
26185;PMS7003;20067;48.764;9.176;2024-01-30T09:04:58;27.50;23.00;13.00
26185;PMS7003;20067;48.764;9.176;2024-01-30T09:07:23;23.25;21.25;13.50
26185;PMS7003;20067;48.764;9.176;2024-01-30T09:09:49;24.75;24.75;14.50
26185;PMS7003;20067;48.764;9.176;2024-01-30T09:12:15;29.00;27.00;14.00
26185;PMS7003;20067;48.764;9.176;2024-01-30T09:14:40;26.75;24.50;14.00
26185;PMS7003;20067;48.764;9.176;2024-01-30T09:17:06;27.00;23.00;15.00
26185;PMS7003;20067;48.764;9.176;2024-01-30T09:19:32;23.25;21.00;15.00
26185;PMS7003;20067;48.764;9.176;2024-01-30T09:21:58;26.00;23.00;14.25
26185;PMS7003;20067;48.764;9.176;2024-01-30T09:24:25;28.00;24.00;15.00
26185;PMS7003;20067;48.764;9.176;2024-01-30T09:26:51;28.25;23.75;16.00
26185;PMS7003;20067;48.764;9.176;2024-01-30T09:29:17;33.75;27.25;16.50
26185;PMS7003;20067;48.764;9.176;2024-01-30T09:31:43;34.25;29.75;19.25
26185;PMS7003;20067;48.764;9.176;2024-01-30T09:34:12;36.25;29.25;19.50
26185;PMS7003;20067;48.764;9.176;2024-01-30T09:36:39;40.25;32.50;18.75
26185;PMS7003;20067;48.764;9.176;2024-01-30T09:39:04;31.25;28.50;17.25
26185;PMS7003;20067;48.764;9.176;2024-01-30T09:41:37;36.25;30.25;18.75
26185;PMS7003;20067;48.764;9.176;2024-01-30T09:44:20;31.00;28.75;18.00
26185;PMS7003;20067;48.764;9.176;2024-01-30T09:46:48;36.50;30.75;18.00
26185;PMS7003;20067;48.764;9.176;2024-01-30T09:49:14;33.50;26.00;17.00
26185;PMS7003;20067;48.764;9.176;2024-01-30T09:51:41;31.50;31.50;20.50
26185;PMS7003;20067;48.764;9.176;2024-01-30T09:54:07;32.00;31.00;20.00
26185;PMS7003;20067;48.764;9.176;2024-01-30T09:56:34;31.75;27.50;17.25
26185;PMS7003;20067;48.764;9.176;2024-01-30T09:59:00;27.50;25.25;17.00
26185;PMS7003;20067;48.764;9.176;2024-01-30T10:01:26;27.00;26.00;17.75
26185;PMS7003;20067;48.764;9.176;2024-01-30T10:03:52;37.00;31.50;21.00
26185;PMS7003;20067;48.764;9.176;2024-01-30T10:06:19;32.25;31.50;20.50
26185;PMS7003;20067;48.764;9.176;2024-01-30T10:08:46;32.25;28.75;18.50
26185;PMS7003;20067;48.764;9.176;2024-01-30T10:11:11;28.75;27.25;18.75
26185;PMS7003;20067;48.764;9.176;2024-01-30T10:13:38;27.25;27.25;19.25
26185;PMS7003;20067;48.764;9.176;2024-01-30T10:16:04;33.50;31.75;21.75
26185;PMS7003;20067;48.764;9.176;2024-01-30T10:18:31;32.50;28.50;19.25
26185;PMS7003;20067;48.764;9.176;2024-01-30T10:20:58;38.25;33.50;21.00
26185;PMS7003;20067;48.764;9.176;2024-01-30T10:23:24;32.50;31.25;21.00
26185;PMS7003;20067;48.764;9.176;2024-01-30T10:25:53;31.00;30.50;19.25
26185;PMS7003;20067;48.764;9.176;2024-01-30T10:28:18;35.75;32.75;21.50
26185;PMS7003;20067;48.764;9.176;2024-01-30T10:30:45;31.50;31.25;21.00
26185;PMS7003;20067;48.764;9.176;2024-01-30T10:33:10;31.00;29.25;22.75
26185;PMS7003;20067;48.764;9.176;2024-01-30T10:35:36;41.00;34.00;22.00
26185;PMS7003;20067;48.764;9.176;2024-01-30T10:38:02;35.75;31.00;19.50
26185;PMS7003;20067;48.764;9.176;2024-01-30T10:40:31;32.75;29.50;21.50
26185;PMS7003;20067;48.764;9.176;2024-01-30T10:42:58;28.75;27.25;18.00
26185;PMS7003;20067;48.764;9.176;2024-01-30T10:45:27;38.25;34.50;22.00
26185;PMS7003;20067;48.764;9.176;2024-01-30T10:47:54;35.50;35.25;21.50
26185;PMS7003;20067;48.764;9.176;2024-01-30T10:50:26;37.25;35.00;22.75
26185;PMS7003;20067;48.764;9.176;2024-01-30T10:52:53;36.75;34.50;23.50
26185;PMS7003;20067;48.764;9.176;2024-01-30T10:55:20;40.75;37.75;22.75
26185;PMS7003;20067;48.764;9.176;2024-01-30T10:57:48;37.25;35.25;23.00
26185;PMS7003;20067;48.764;9.176;2024-01-30T11:00:15;35.25;33.00;21.75
26185;PMS7003;20067;48.764;9.176;2024-01-30T11:02:45;35.50;30.25;21.00
26185;PMS7003;20067;48.764;9.176;2024-01-30T11:05:12;39.00;35.75;22.50
26185;PMS7003;20067;48.764;9.176;2024-01-30T11:07:38;39.75;34.25;22.25
26185;PMS7003;20067;48.764;9.176;2024-01-30T11:10:07;34.75;32.50;23.00
26185;PMS7003;20067;48.764;9.176;2024-01-30T11:12:37;34.50;32.00;22.25
26185;PMS7003;20067;48.764;9.176;2024-01-30T11:15:09;33.00;31.25;20.00
26185;PMS7003;20067;48.764;9.176;2024-01-30T11:22:53;37.75;32.50;20.00
26185;PMS7003;20067;48.764;9.176;2024-01-30T11:25:21;37.00;36.75;24.75
26185;PMS7003;20067;48.764;9.176;2024-01-30T11:27:49;37.25;32.00;22.75
26185;PMS7003;20067;48.764;9.176;2024-01-30T11:30:30;39.00;37.25;25.50
26185;PMS7003;20067;48.764;9.176;2024-01-30T11:35:34;41.50;37.75;25.00
26185;PMS7003;20067;48.764;9.176;2024-01-30T11:38:00;32.50;28.00;19.50
26185;PMS7003;20067;48.764;9.176;2024-01-30T11:40:27;33.00;32.00;21.75
26185;PMS7003;20067;48.764;9.176;2024-01-30T11:42:54;38.75;35.00;23.00
26185;PMS7003;20067;48.764;9.176;2024-01-30T11:45:23;48.75;38.00;24.00
26185;PMS7003;20067;48.764;9.176;2024-01-30T11:47:49;42.50;36.75;23.75
26185;PMS7003;20067;48.764;9.176;2024-01-30T11:50:15;47.75;37.00;24.50
26185;PMS7003;20067;48.764;9.176;2024-01-30T11:52:41;34.50;32.75;22.50
26185;PMS7003;20067;48.764;9.176;2024-01-30T11:55:08;38.25;33.75;24.50
26185;PMS7003;20067;48.764;9.176;2024-01-30T11:57:35;36.50;35.50;22.00
26185;PMS7003;20067;48.764;9.176;2024-01-30T12:00:02;42.25;40.50;24.75
26185;PMS7003;20067;48.764;9.176;2024-01-30T12:02:35;35.25;33.75;21.50
26185;PMS7003;20067;48.764;9.176;2024-01-30T12:05:05;39.00;34.75;23.00
26185;PMS7003;20067;48.764;9.176;2024-01-30T12:07:31;38.00;35.75;24.00
26185;PMS7003;20067;48.764;9.176;2024-01-30T12:09:57;37.00;33.50;23.25
26185;PMS7003;20067;48.764;9.176;2024-01-30T12:12:27;36.00;32.50;24.00
26185;PMS7003;20067;48.764;9.176;2024-01-30T12:14:53;37.75;37.00;25.00
26185;PMS7003;20067;48.764;9.176;2024-01-30T12:17:33;35.75;33.25;24.00
26185;PMS7003;20067;48.764;9.176;2024-01-30T12:20:05;40.75;36.25;24.75
26185;PMS7003;20067;48.764;9.176;2024-01-30T12:25:25;34.50;33.50;21.00
26185;PMS7003;20067;48.764;9.176;2024-01-30T12:27:50;35.00;31.75;20.75
26185;PMS7003;20067;48.764;9.176;2024-01-30T12:30:16;34.25;31.50;18.50
26185;PMS7003;20067;48.764;9.176;2024-01-30T12:32:43;35.25;32.25;21.50
26185;PMS7003;20067;48.764;9.176;2024-01-30T12:37:37;32.75;30.00;21.00
26185;PMS7003;20067;48.764;9.176;2024-01-30T12:40:03;32.75;31.00;21.50
26185;PMS7003;20067;48.764;9.176;2024-01-30T12:42:31;41.00;33.75;23.25
26185;PMS7003;20067;48.764;9.176;2024-01-30T12:44:59;38.50;34.75;20.25
26185;PMS7003;20067;48.764;9.176;2024-01-30T12:47:24;31.75;29.75;17.75
26185;PMS7003;20067;48.764;9.176;2024-01-30T12:49:50;33.75;31.50;16.75
26185;PMS7003;20067;48.764;9.176;2024-01-30T12:52:19;37.75;36.00;22.00
26185;PMS7003;20067;48.764;9.176;2024-01-30T12:54:49;36.00;35.00;20.00
26185;PMS7003;20067;48.764;9.176;2024-01-30T12:57:15;41.25;35.25;22.00
26185;PMS7003;20067;48.764;9.176;2024-01-30T12:59:41;32.00;29.00;19.75
26185;PMS7003;20067;48.764;9.176;2024-01-30T13:02:08;31.50;30.75;17.75
26185;PMS7003;20067;48.764;9.176;2024-01-30T13:04:34;30.75;29.00;19.00
26185;PMS7003;20067;48.764;9.176;2024-01-30T13:07:00;33.00;28.00;18.25
26185;PMS7003;20067;48.764;9.176;2024-01-30T13:09:25;37.00;31.00;18.50
26185;PMS7003;20067;48.764;9.176;2024-01-30T13:11:52;34.75;29.50;18.00
26185;PMS7003;20067;48.764;9.176;2024-01-30T13:14:18;35.25;32.25;17.25
26185;PMS7003;20067;48.764;9.176;2024-01-30T13:16:44;31.75;29.25;18.50
26185;PMS7003;20067;48.764;9.176;2024-01-30T13:19:10;35.25;30.00;17.00
26185;PMS7003;20067;48.764;9.176;2024-01-30T13:21:36;34.00;31.25;18.75
26185;PMS7003;20067;48.764;9.176;2024-01-30T13:24:02;33.00;31.25;19.25
26185;PMS7003;20067;48.764;9.176;2024-01-30T13:26:29;33.50;29.75;18.50
26185;PMS7003;20067;48.764;9.176;2024-01-30T13:28:56;33.75;31.75;17.00
26185;PMS7003;20067;48.764;9.176;2024-01-30T13:31:21;32.25;29.50;17.50
26185;PMS7003;20067;48.764;9.176;2024-01-30T13:33:47;37.75;33.75;19.00
26185;PMS7003;20067;48.764;9.176;2024-01-30T13:36:14;28.75;28.25;16.75
26185;PMS7003;20067;48.764;9.176;2024-01-30T13:38:39;33.50;31.75;17.25
26185;PMS7003;20067;48.764;9.176;2024-01-30T13:41:05;32.00;29.00;16.00
26185;PMS7003;20067;48.764;9.176;2024-01-30T13:43:31;32.50;26.75;16.00
26185;PMS7003;20067;48.764;9.176;2024-01-30T13:45:57;31.00;28.00;17.00
26185;PMS7003;20067;48.764;9.176;2024-01-30T13:48:23;29.75;26.75;17.00
26185;PMS7003;20067;48.764;9.176;2024-01-30T13:50:49;32.00;29.75;17.75
26185;PMS7003;20067;48.764;9.176;2024-01-30T13:53:15;28.75;27.25;16.75
26185;PMS7003;20067;48.764;9.176;2024-01-30T13:55:42;32.75;29.75;20.00
26185;PMS7003;20067;48.764;9.176;2024-01-30T13:58:07;33.50;30.25;19.75
26185;PMS7003;20067;48.764;9.176;2024-01-30T14:00:33;26.75;26.75;18.00